createdAt,value
2019-03-01T00:02:26.134Z,1.57
2019-03-01T00:06:09.955Z,1.60
2019-03-01T00:09:37.728Z,0.50
2019-03-01T00:13:09.050Z,1.27
2019-03-01T00:16:20.901Z,0.70
2019-03-01T00:19:37.574Z,3.20
2019-03-01T00:22:50.059Z,1.25
2019-03-01T00:25:59.426Z,0.50
2019-03-01T00:29:20.876Z,1.27
2019-03-01T00:32:33.814Z,1.85
2019-03-01T00:35:44.569Z,0.98
2019-03-01T00:39:20.021Z,1.10
2019-03-01T00:42:23.708Z,1.30
2019-03-01T00:44:54.763Z,1.40
2019-03-01T00:47:25.855Z,1.70
2019-03-01T00:49:56.951Z,2.27
2019-03-01T00:52:28.009Z,1.02
2019-03-01T00:54:59.023Z,1.15
2019-03-01T00:57:30.024Z,0.50
2019-03-01T01:00:01.282Z,1.32
2019-03-01T01:02:32.939Z,0.60
2019-03-01T01:05:06.026Z,0.90
2019-03-01T01:07:37.481Z,0.40
2019-03-01T01:10:08.957Z,1.47
2019-03-01T01:12:39.963Z,3.30
2019-03-01T01:15:11.254Z,0.47
2019-03-01T01:17:42.384Z,0.57
2019-03-01T01:20:13.555Z,0.27
2019-03-01T01:22:44.690Z,0.30
2019-03-01T01:25:16.302Z,0.67
2019-03-01T01:27:47.353Z,0.30
2019-03-01T01:30:18.503Z,1.33
2019-03-01T01:32:49.569Z,0.30
2019-03-01T01:35:20.626Z,0.43
2019-03-01T01:37:51.619Z,1.40
2019-03-01T01:40:22.709Z,0.20
2019-03-01T01:42:54.471Z,1.45
2019-03-01T01:45:25.708Z,0.20
2019-03-01T01:47:57.213Z,0.20
2019-03-01T01:50:28.565Z,0.23
2019-03-01T01:52:59.800Z,2.93
2019-03-01T01:55:31.257Z,0.13
2019-03-01T01:58:02.395Z,0.93
2019-03-01T02:00:34.033Z,0.63
2019-03-01T02:03:05.278Z,0.95
2019-03-01T02:05:36.669Z,0.30
2019-03-01T02:08:08.758Z,0.50
2019-03-01T02:10:40.209Z,0.50
2019-03-01T02:13:11.350Z,0.62
2019-03-01T02:15:42.666Z,0.60
2019-03-01T02:18:13.926Z,0.53
2019-03-01T02:20:44.932Z,0.80
2019-03-01T02:23:15.913Z,0.50
2019-03-01T02:25:47.024Z,0.53
2019-03-01T02:28:18.038Z,0.73
2019-03-01T02:30:49.515Z,0.20
2019-03-01T02:33:20.896Z,0.57
2019-03-01T02:35:52.040Z,0.30
2019-03-01T02:38:24.350Z,0.80
2019-03-01T02:40:55.344Z,0.13
2019-03-01T02:43:26.400Z,0.30
2019-03-01T02:45:57.862Z,0.37
2019-03-01T02:48:28.876Z,0.20
2019-03-01T02:51:01.451Z,1.45
2019-03-01T02:53:32.512Z,0.10
2019-03-01T02:56:03.558Z,0.42
2019-03-01T02:58:34.549Z,0.30
2019-03-01T03:01:05.598Z,0.93
2019-03-01T03:03:36.597Z,0.20
2019-03-01T03:06:24.995Z,0.20
2019-03-01T03:08:55.964Z,0.57
2019-03-01T03:11:27.002Z,0.73
2019-03-01T03:13:58.030Z,0.20
2019-03-01T03:16:29.469Z,0.20
2019-03-01T03:19:00.798Z,0.20
2019-03-01T03:21:32.226Z,0.10
2019-03-01T03:24:03.586Z,0.20
2019-03-01T03:26:34.649Z,0.10
2019-03-01T03:29:05.909Z,0.10
2019-03-01T03:31:36.920Z,0.40
2019-03-01T03:34:08.963Z,0.65
2019-03-01T03:36:40.474Z,0.30
2019-03-01T03:39:13.184Z,0.23
2019-03-01T03:41:44.167Z,2.47
2019-03-01T03:44:16.760Z,0.28
2019-03-01T03:46:48.073Z,0.27
2019-03-01T03:49:19.221Z,0.83
2019-03-01T03:51:50.905Z,0.57
2019-03-01T03:54:21.974Z,2.37
2019-03-01T03:56:53.107Z,0.47
2019-03-01T03:59:24.585Z,0.40
2019-03-01T04:01:56.034Z,0.20
2019-03-01T04:04:27.223Z,0.63
2019-03-01T04:06:58.323Z,0.30
2019-03-01T04:09:29.364Z,1.00
2019-03-01T04:12:00.492Z,0.40
2019-03-01T04:14:31.489Z,0.13
2019-03-01T04:17:02.567Z,0.53
2019-03-01T04:19:33.728Z,0.23
2019-03-01T04:22:05.747Z,0.44
2019-03-01T04:24:37.122Z,0.53
2019-03-01T04:27:08.140Z,0.03
2019-03-01T04:29:39.125Z,0.70
2019-03-01T04:32:10.108Z,0.17
2019-03-01T04:34:41.218Z,0.25
2019-03-01T04:37:12.191Z,0.20
2019-03-01T04:39:43.258Z,0.65
2019-03-01T04:42:14.265Z,0.62
2019-03-01T04:44:45.292Z,0.40
2019-03-01T04:47:16.286Z,0.40
2019-03-01T04:49:48.037Z,3.13
2019-03-01T04:52:32.849Z,0.33
2019-03-01T04:55:05.077Z,0.10
2019-03-01T04:57:36.066Z,0.10
2019-03-01T05:00:10.551Z,0.10
2019-03-01T05:02:41.853Z,0.93
2019-03-01T05:05:13.223Z,0.10
2019-03-01T05:07:44.509Z,0.10
2019-03-01T05:10:16.551Z,0.30
2019-03-01T05:12:47.972Z,0.63
2019-03-01T05:15:21.614Z,0.63
2019-03-01T05:17:53.055Z,0.20
2019-03-01T05:20:24.179Z,1.37
2019-03-01T05:22:55.269Z,0.43
2019-03-01T05:25:26.581Z,0.30
2019-03-01T05:27:58.082Z,0.93
2019-03-01T05:30:29.323Z,0.30
2019-03-01T05:33:00.427Z,0.07
2019-03-01T05:35:31.865Z,0.13
2019-03-01T05:38:02.941Z,0.10
2019-03-01T05:40:33.971Z,0.10
2019-03-01T05:43:06.148Z,0.10
2019-03-01T05:45:37.164Z,0.00
2019-03-01T05:48:08.198Z,0.43
2019-03-01T05:50:39.225Z,0.10
2019-03-01T05:53:10.248Z,0.30
2019-03-01T05:55:41.244Z,0.00
2019-03-01T05:58:38.573Z,0.30
2019-03-01T06:01:19.199Z,0.00
2019-03-01T06:03:58.998Z,0.00
2019-03-01T06:07:12.552Z,0.00
2019-03-01T06:10:09.120Z,0.13
2019-03-01T06:13:38.306Z,0.10
2019-03-01T06:17:12.008Z,0.10
2019-03-01T06:20:33.189Z,0.00
2019-03-01T06:23:30.699Z,0.10
2019-03-01T06:26:54.568Z,0.00
2019-03-01T06:30:34.049Z,0.10
2019-03-01T06:33:43.907Z,0.10
2019-03-01T06:36:54.058Z,0.10
2019-03-01T06:40:21.622Z,0.00
2019-03-01T06:43:36.659Z,0.00
2019-03-01T06:46:40.208Z,0.13
2019-03-01T06:49:23.379Z,0.10
2019-03-01T06:51:54.442Z,0.10
2019-03-01T06:54:25.882Z,0.20
2019-03-01T06:56:57.022Z,0.47
2019-03-01T06:59:28.073Z,0.07
2019-03-01T07:01:59.178Z,0.10
2019-03-01T07:04:30.169Z,0.10
2019-03-01T07:07:01.192Z,0.00
2019-03-01T07:09:32.236Z,0.17
2019-03-01T07:12:03.252Z,1.00
2019-03-01T07:14:34.662Z,0.10
2019-03-01T07:17:07.044Z,0.10
2019-03-01T07:19:38.354Z,0.03
2019-03-01T07:22:09.387Z,0.13
2019-03-01T07:24:40.429Z,0.30
2019-03-01T07:27:12.346Z,0.13
2019-03-01T07:29:43.641Z,0.23
2019-03-01T07:32:14.856Z,0.23
2019-03-01T07:34:46.570Z,0.20
2019-03-01T07:37:18.206Z,0.67
2019-03-01T07:39:49.467Z,0.30
2019-03-01T07:42:20.459Z,0.30
2019-03-01T07:44:52.103Z,0.10
2019-03-01T07:47:23.658Z,0.20
2019-03-01T07:49:54.762Z,0.20
2019-03-01T07:52:26.030Z,0.13
2019-03-01T07:54:57.259Z,0.25
2019-03-01T07:57:28.250Z,0.10
2019-03-01T07:59:59.257Z,0.27
2019-03-01T08:02:30.234Z,0.60
2019-03-01T08:05:04.271Z,0.27
2019-03-01T08:07:35.424Z,0.20
2019-03-01T08:10:10.040Z,0.50
2019-03-01T08:12:42.592Z,0.10
2019-03-01T08:15:15.068Z,0.00
2019-03-01T08:17:46.699Z,0.10
2019-03-01T08:20:18.270Z,0.10
2019-03-01T08:22:49.844Z,0.15
2019-03-01T08:25:23.482Z,0.20
2019-03-01T08:27:54.577Z,0.10
2019-03-01T08:30:25.621Z,1.03
2019-03-01T08:32:56.938Z,0.20
2019-03-01T08:35:31.012Z,0.20
2019-03-01T08:38:00.775Z,0.20
2019-03-01T08:40:31.826Z,0.20
2019-03-01T08:43:02.836Z,0.00
2019-03-01T08:45:35.306Z,0.20
2019-03-01T08:48:07.302Z,0.10
2019-03-01T08:50:38.313Z,0.10
2019-03-01T08:53:11.374Z,0.05
2019-03-01T08:55:42.093Z,0.10
2019-03-01T08:58:13.395Z,0.20
2019-03-01T09:00:44.623Z,0.07
2019-03-01T09:03:36.290Z,0.10
2019-03-01T09:06:07.544Z,0.70
2019-03-01T09:08:38.598Z,0.23
2019-03-01T09:11:10.426Z,0.00
2019-03-01T09:13:41.867Z,0.00
2019-03-01T09:16:12.945Z,0.00
2019-03-01T09:18:46.661Z,0.17
2019-03-01T09:21:17.108Z,1.07
2019-03-01T09:23:52.125Z,0.13
2019-03-01T09:26:21.127Z,0.75
2019-03-01T09:28:52.198Z,0.47
2019-03-01T09:31:23.277Z,0.00
2019-03-01T09:33:56.681Z,0.10
2019-03-01T09:36:45.652Z,0.20
2019-03-01T09:39:18.035Z,0.35
2019-03-01T09:41:49.906Z,0.50
2019-03-01T09:44:21.294Z,0.20
2019-03-01T09:46:52.303Z,0.20
2019-03-01T09:49:24.436Z,0.40
2019-03-01T09:51:56.283Z,0.23
2019-03-01T09:54:27.883Z,0.55
2019-03-01T09:56:58.878Z,0.10
2019-03-01T09:59:31.159Z,0.30
2019-03-01T10:02:02.483Z,0.10
2019-03-01T10:04:33.692Z,0.75
2019-03-01T10:07:05.616Z,0.20
2019-03-01T10:09:36.602Z,0.20
2019-03-01T10:12:07.971Z,0.20
2019-03-01T10:14:38.996Z,2.83
2019-03-01T10:17:10.127Z,0.10
2019-03-01T10:19:41.190Z,0.10
2019-03-01T10:22:12.278Z,0.20
2019-03-01T10:24:43.268Z,0.20
2019-03-01T10:27:14.662Z,0.42
2019-03-01T10:29:45.695Z,0.10
2019-03-01T10:32:16.672Z,0.23
2019-03-01T10:34:47.762Z,0.10
2019-03-01T10:37:18.747Z,0.20
2019-03-01T10:39:55.337Z,0.07
2019-03-01T10:42:22.909Z,0.25
2019-03-01T10:44:53.960Z,0.27
2019-03-01T10:47:24.935Z,0.33
2019-03-01T10:49:56.190Z,0.07
2019-03-01T10:52:27.586Z,1.60
2019-03-01T10:54:58.646Z,0.85
2019-03-01T10:57:29.879Z,2.97
2019-03-01T11:00:01.525Z,2.17
2019-03-01T11:02:33.769Z,0.70
2019-03-01T11:05:06.340Z,0.25
2019-03-01T11:07:37.515Z,1.97
2019-03-01T11:10:10.817Z,0.20
2019-03-01T11:12:41.816Z,0.33
2019-03-01T11:15:13.448Z,0.50
2019-03-01T11:17:44.747Z,0.30
2019-03-01T11:20:16.864Z,0.30
2019-03-01T11:22:49.427Z,0.20
2019-03-01T11:25:21.440Z,0.20
2019-03-01T11:27:52.715Z,0.30
2019-03-01T11:30:26.800Z,0.30
2019-03-01T11:32:57.797Z,0.40
2019-03-01T11:35:29.182Z,0.87
2019-03-01T11:38:00.258Z,1.00
2019-03-01T11:40:33.140Z,1.63
2019-03-01T11:43:06.807Z,0.93
2019-03-01T11:45:37.948Z,0.40
2019-03-01T11:48:09.200Z,0.40
2019-03-01T11:50:40.258Z,0.53
2019-03-01T11:53:11.348Z,1.10
2019-03-01T11:55:42.689Z,0.50
2019-03-01T11:58:13.752Z,1.00
2019-03-01T12:00:52.031Z,0.60
2019-03-01T12:03:18.073Z,0.60
2019-03-01T12:05:49.529Z,2.17
2019-03-01T12:08:20.747Z,0.50
2019-03-01T12:10:52.937Z,0.90
2019-03-01T12:13:24.777Z,0.83
2019-03-01T12:15:55.755Z,0.50
2019-03-01T12:18:27.291Z,0.70
2019-03-01T12:20:58.345Z,0.90
2019-03-01T12:23:29.971Z,1.30
2019-03-01T12:26:00.948Z,1.57
2019-03-01T12:28:31.969Z,1.13
2019-03-01T12:31:03.307Z,0.67
2019-03-01T12:33:35.053Z,0.70
2019-03-01T12:36:06.224Z,0.40
2019-03-01T12:38:37.357Z,0.50
2019-03-01T12:41:08.506Z,0.30
2019-03-01T12:43:39.703Z,1.60
2019-03-01T12:46:11.908Z,0.40
2019-03-01T12:48:43.215Z,0.57
2019-03-01T12:51:14.525Z,0.55
2019-03-01T12:53:45.573Z,0.43
2019-03-01T12:56:16.597Z,0.37
2019-03-01T12:58:47.668Z,5.03
2019-03-01T13:01:19.108Z,0.67
2019-03-01T13:03:51.038Z,0.62
2019-03-01T13:06:22.381Z,1.95
2019-03-01T13:08:54.789Z,2.00
2019-03-01T13:11:26.144Z,0.82
2019-03-01T13:13:57.197Z,1.23
2019-03-01T13:16:28.583Z,1.37
2019-03-01T13:18:59.661Z,1.50
2019-03-01T13:21:30.997Z,1.70
2019-03-01T13:24:02.276Z,2.00
2019-03-01T13:26:33.954Z,1.80
2019-03-01T13:29:05.068Z,1.00
2019-03-01T13:31:36.416Z,1.37
2019-03-01T13:34:10.523Z,2.97
2019-03-01T13:36:40.684Z,3.30
2019-03-01T13:39:12.396Z,1.60
2019-03-01T13:41:43.377Z,1.77
2019-03-01T13:44:14.587Z,0.93
2019-03-01T13:46:45.605Z,1.07
2019-03-01T13:49:16.678Z,2.40
2019-03-01T13:51:49.456Z,2.23
2019-03-01T13:54:22.074Z,1.20
2019-03-01T13:56:53.414Z,1.50
2019-03-01T13:59:24.902Z,1.70
2019-03-01T14:01:56.407Z,2.27
2019-03-01T14:04:27.733Z,1.73
2019-03-01T14:06:58.705Z,2.70
2019-03-01T14:09:29.697Z,1.67
2019-03-01T14:12:00.930Z,2.30
2019-03-01T14:14:32.502Z,2.70
2019-03-01T14:17:03.478Z,2.22
2019-03-01T14:19:34.534Z,3.87
2019-03-01T14:22:10.701Z,4.22
2019-03-01T14:24:38.508Z,4.17
2019-03-01T14:27:09.854Z,4.17
2019-03-01T14:29:41.103Z,2.47
2019-03-01T14:32:14.869Z,4.33
2019-03-01T14:34:47.676Z,3.10
2019-03-01T14:37:19.289Z,1.73
2019-03-01T14:39:51.929Z,5.50
2019-03-01T14:42:23.560Z,7.23
2019-03-01T14:44:54.644Z,3.47
2019-03-01T14:47:29.044Z,2.85
2019-03-01T14:49:58.972Z,3.22
2019-03-01T14:52:29.986Z,3.13
2019-03-01T14:55:01.546Z,5.67
2019-03-01T14:57:43.004Z,6.23
2019-03-01T15:00:32.251Z,5.10
2019-03-01T15:03:42.897Z,3.87
2019-03-01T15:06:18.673Z,3.83
2019-03-01T15:08:48.056Z,5.97
2019-03-01T15:11:21.934Z,6.40
2019-03-01T15:13:56.579Z,5.23
2019-03-01T15:16:27.638Z,4.40
2019-03-01T15:18:59.263Z,3.20
2019-03-01T15:21:30.609Z,4.60
2019-03-01T15:24:03.532Z,4.63
2019-03-01T15:26:34.955Z,3.90
2019-03-01T15:29:06.427Z,4.70
2019-03-01T15:31:37.743Z,2.70
2019-03-01T15:34:09.130Z,3.00
2019-03-01T15:36:40.421Z,3.97
2019-03-01T15:39:11.923Z,3.17
2019-03-01T15:41:43.331Z,7.47
2019-03-01T15:44:14.694Z,3.73
2019-03-01T15:46:46.446Z,5.30
2019-03-01T15:49:23.683Z,4.63
2019-03-01T15:51:52.830Z,4.47
2019-03-01T15:54:23.818Z,4.63
2019-03-01T15:56:54.856Z,3.58
2019-03-01T15:59:26.114Z,3.17
2019-03-01T16:02:05.223Z,2.30
2019-03-01T16:04:37.326Z,4.77
2019-03-01T16:07:08.628Z,4.90
2019-03-01T16:09:40.159Z,6.60
2019-03-01T16:12:11.645Z,6.70
2019-03-01T16:14:42.675Z,4.97
2019-03-01T16:17:13.903Z,3.27
2019-03-01T16:19:46.971Z,6.67
2019-03-01T16:22:18.994Z,4.25
2019-03-01T16:24:50.435Z,4.40
2019-03-01T16:27:22.845Z,5.60
2019-03-01T16:29:54.209Z,6.57
2019-03-01T16:32:25.364Z,5.78
2019-03-01T16:34:56.469Z,5.47
2019-03-01T16:37:28.533Z,5.90
2019-03-01T16:40:00.266Z,5.33
2019-03-01T16:42:38.532Z,4.03
2019-03-01T16:45:09.274Z,5.57
2019-03-01T16:47:42.081Z,4.87
2019-03-01T16:50:14.476Z,4.90
2019-03-01T16:52:45.623Z,6.50
2019-03-01T16:55:17.447Z,4.60
2019-03-01T16:57:52.011Z,6.67
2019-03-01T17:00:22.721Z,6.10
2019-03-01T17:02:53.809Z,4.77
2019-03-01T17:05:24.919Z,7.70
2019-03-01T17:07:55.910Z,7.27
2019-03-01T17:10:30.278Z,5.33
2019-03-01T17:13:00.555Z,6.20
2019-03-01T17:15:31.982Z,3.67
2019-03-01T17:18:04.889Z,6.30
2019-03-01T17:20:38.422Z,6.17
2019-03-01T17:23:08.913Z,8.10
2019-03-01T17:25:41.118Z,7.45
2019-03-01T17:28:12.116Z,7.50
2019-03-01T17:30:46.748Z,7.30
2019-03-01T17:33:16.313Z,8.10
2019-03-01T17:35:48.113Z,8.90
2019-03-01T17:38:19.572Z,5.53
2019-03-01T17:40:51.208Z,8.30
2019-03-01T17:43:22.869Z,8.52
2019-03-01T17:45:54.446Z,8.43
2019-03-01T17:48:26.631Z,4.40
2019-03-01T17:50:58.044Z,4.20
2019-03-01T17:53:29.537Z,8.27
2019-03-01T17:56:00.589Z,5.17
2019-03-01T17:58:31.904Z,4.10
2019-03-01T18:01:03.867Z,6.70
2019-03-01T18:03:34.949Z,5.13
2019-03-01T18:06:06.051Z,3.10
2019-03-01T18:08:39.643Z,6.03
2019-03-01T18:11:09.916Z,4.30
2019-03-01T18:13:41.284Z,4.33
2019-03-01T18:16:12.376Z,5.57
2019-03-01T18:18:48.826Z,5.55
2019-03-01T18:21:16.636Z,4.67
2019-03-01T18:23:47.920Z,6.87
2019-03-01T18:26:18.928Z,5.00
2019-03-01T18:28:49.908Z,4.37
2019-03-01T18:31:20.924Z,6.23
2019-03-01T18:33:53.736Z,3.98
2019-03-01T18:36:28.221Z,6.67
2019-03-01T18:38:57.815Z,5.43
2019-03-01T18:41:28.848Z,6.60
2019-03-01T18:43:59.940Z,8.37
2019-03-01T18:46:31.056Z,6.37
2019-03-01T18:49:02.464Z,10.23
2019-03-01T18:51:34.756Z,7.10
2019-03-01T18:54:06.088Z,10.67
2019-03-01T18:56:37.209Z,8.30
2019-03-01T18:59:08.258Z,7.10
2019-03-01T19:01:42.842Z,8.95
2019-03-01T19:04:12.973Z,9.70
2019-03-01T19:06:48.404Z,9.05
2019-03-01T19:09:18.365Z,7.87
2019-03-01T19:11:49.396Z,7.97
2019-03-01T19:14:20.708Z,13.37
2019-03-01T19:16:51.733Z,7.58
2019-03-01T19:19:24.427Z,10.03
2019-03-01T19:21:55.941Z,11.03
2019-03-01T19:24:26.995Z,12.97
2019-03-01T19:26:58.194Z,11.00
2019-03-01T19:29:29.526Z,12.20
2019-03-01T19:32:00.650Z,13.03
2019-03-01T19:34:32.386Z,9.60
2019-03-01T19:37:04.647Z,8.60
2019-03-01T19:39:36.148Z,18.30
2019-03-01T19:42:07.560Z,9.87
2019-03-01T19:44:38.985Z,13.50
2019-03-01T19:47:10.058Z,11.43
2019-03-01T19:49:41.369Z,11.50
2019-03-01T19:52:13.012Z,8.20
2019-03-01T19:54:44.665Z,12.28
2019-03-01T19:57:15.734Z,10.08
2019-03-01T19:59:49.602Z,9.05
2019-03-01T20:02:19.763Z,10.17
2019-03-01T20:04:52.531Z,11.78
2019-03-01T20:07:24.701Z,8.77
2019-03-01T20:09:57.469Z,16.57
2019-03-01T20:12:28.815Z,8.43
2019-03-01T20:14:59.883Z,15.53
2019-03-01T20:17:33.484Z,11.85
2019-03-01T20:20:05.234Z,9.33
2019-03-01T20:22:36.240Z,8.63
2019-03-01T20:25:12.773Z,9.07
2019-03-01T20:27:42.339Z,10.60
2019-03-01T20:30:17.873Z,11.47
2019-03-01T20:32:51.093Z,12.37
2019-03-01T20:35:25.811Z,9.65
2019-03-01T20:38:00.066Z,9.83
2019-03-01T20:40:29.641Z,11.10
2019-03-01T20:43:06.662Z,9.10
2019-03-01T20:45:34.990Z,9.13
2019-03-01T20:48:06.197Z,8.67
2019-03-01T20:50:37.675Z,11.50
2019-03-01T20:53:10.142Z,9.87
2019-03-01T20:55:41.938Z,10.08
2019-03-01T20:58:13.081Z,8.77
2019-03-01T21:00:44.121Z,13.70
2019-03-01T21:03:15.167Z,12.83
2019-03-01T21:05:46.224Z,10.65
2019-03-01T21:08:17.687Z,10.13
2019-03-01T21:10:50.093Z,10.18
2019-03-01T21:13:23.848Z,11.57
2019-03-01T21:15:54.871Z,9.70
2019-03-01T21:18:25.930Z,9.40
2019-03-01T21:20:56.945Z,10.33
2019-03-01T21:23:27.996Z,9.98
2019-03-01T21:25:59.033Z,8.73
2019-03-01T21:28:36.561Z,8.78
2019-03-01T21:31:06.454Z,10.03
2019-03-01T21:33:37.711Z,8.43
2019-03-01T21:36:08.711Z,11.63
2019-03-01T21:38:39.798Z,9.75
2019-03-01T21:41:11.116Z,9.07
2019-03-01T21:43:42.436Z,13.35
2019-03-01T21:46:13.414Z,8.93
2019-03-01T21:48:44.772Z,9.58
2019-03-01T21:51:18.544Z,9.17
2019-03-01T21:53:49.711Z,9.65
2019-03-01T21:56:21.138Z,7.60
2019-03-01T21:58:52.370Z,13.33
2019-03-01T22:01:23.927Z,7.27
2019-03-01T22:03:55.202Z,10.10
2019-03-01T22:06:27.130Z,10.40
2019-03-01T22:08:58.151Z,11.43
2019-03-01T22:11:29.117Z,12.93
2019-03-01T22:14:00.305Z,11.70
2019-03-01T22:16:32.720Z,13.15
2019-03-01T22:19:07.188Z,7.44
2019-03-01T22:21:38.440Z,8.97
2019-03-01T22:24:09.488Z,10.55
2019-03-01T22:26:40.509Z,9.73
2019-03-01T22:29:12.124Z,10.95
2019-03-01T22:31:43.421Z,13.90
2019-03-01T22:34:14.788Z,13.70
2019-03-01T22:36:45.814Z,13.58
2019-03-01T22:39:17.518Z,11.00
2019-03-01T22:41:48.596Z,7.50
2019-03-01T22:44:19.963Z,9.70
2019-03-01T22:46:51.258Z,9.65
2019-03-01T22:49:23.477Z,9.60
2019-03-01T22:51:54.833Z,10.07
2019-03-01T22:54:26.390Z,12.33
2019-03-01T22:56:57.615Z,9.27
2019-03-01T22:59:28.587Z,7.90
2019-03-01T23:02:08.011Z,9.70
2019-03-01T23:04:37.759Z,12.17
2019-03-01T23:07:08.813Z,10.70
2019-03-01T23:09:42.603Z,9.78
2019-03-01T23:12:14.853Z,12.97
2019-03-01T23:14:46.525Z,10.40
2019-03-01T23:17:17.550Z,8.67
2019-03-01T23:19:51.666Z,9.75
2019-03-01T23:22:23.551Z,9.05
2019-03-01T23:24:54.961Z,9.17
2019-03-01T23:27:28.496Z,14.77
2019-03-01T23:29:58.949Z,13.13
2019-03-01T23:32:30.946Z,14.23
2019-03-01T23:35:01.944Z,11.17
2019-03-01T23:37:35.633Z,13.80
2019-03-01T23:40:05.726Z,7.67
2019-03-01T23:42:36.834Z,10.87
2019-03-01T23:45:08.288Z,10.93
2019-03-01T23:47:39.799Z,9.73
2019-03-01T23:50:10.816Z,11.70
2019-03-01T23:52:41.828Z,10.67
2019-03-01T23:55:15.696Z,14.77
2019-03-01T23:57:45.778Z,13.10
